sensor_id;sensor_type;location;lat;lon;timestamp;P1;durP1;ratioP1;P2;durP2;ratioP2
84652;SDS011;74883;48.882;2.092;2023-12-22T00:00:07;15.00;;;2.43;;
84652;SDS011;74883;48.882;2.092;2023-12-22T00:02:33;16.52;;;2.53;;
84652;SDS011;74883;48.882;2.092;2023-12-22T00:04:58;14.40;;;2.67;;
84652;SDS011;74883;48.882;2.092;2023-12-22T00:07:23;20.87;;;2.90;;
84652;SDS011;74883;48.882;2.092;2023-12-22T00:09:49;13.30;;;2.20;;
84652;SDS011;74883;48.882;2.092;2023-12-22T00:12:14;15.67;;;3.27;;
84652;SDS011;74883;48.882;2.092;2023-12-22T00:14:40;15.25;;;3.17;;
84652;SDS011;74883;48.882;2.092;2023-12-22T00:17:05;14.90;;;3.23;;
84652;SDS011;74883;48.882;2.092;2023-12-22T00:19:31;17.58;;;2.53;;
84652;SDS011;74883;48.882;2.092;2023-12-22T00:21:56;13.77;;;2.67;;
84652;SDS011;74883;48.882;2.092;2023-12-22T00:24:23;15.40;;;2.47;;
84652;SDS011;74883;48.882;2.092;2023-12-22T00:26:48;17.67;;;2.75;;
84652;SDS011;74883;48.882;2.092;2023-12-22T00:29:14;16.77;;;4.13;;
84652;SDS011;74883;48.882;2.092;2023-12-22T00:31:39;16.13;;;2.50;;
84652;SDS011;74883;48.882;2.092;2023-12-22T00:34:04;19.00;;;2.63;;
84652;SDS011;74883;48.882;2.092;2023-12-22T00:36:30;17.90;;;2.70;;
84652;SDS011;74883;48.882;2.092;2023-12-22T00:38:55;15.38;;;2.47;;
84652;SDS011;74883;48.882;2.092;2023-12-22T00:41:21;15.10;;;3.22;;
84652;SDS011;74883;48.882;2.092;2023-12-22T00:43:46;17.58;;;2.40;;
84652;SDS011;74883;48.882;2.092;2023-12-22T00:46:12;18.50;;;2.67;;
84652;SDS011;74883;48.882;2.092;2023-12-22T00:48:38;10.98;;;2.03;;
84652;SDS011;74883;48.882;2.092;2023-12-22T00:51:05;16.27;;;3.03;;
84652;SDS011;74883;48.882;2.092;2023-12-22T00:53:32;14.65;;;2.58;;
84652;SDS011;74883;48.882;2.092;2023-12-22T00:55:57;16.90;;;2.93;;
84652;SDS011;74883;48.882;2.092;2023-12-22T00:58:22;15.93;;;2.28;;
84652;SDS011;74883;48.882;2.092;2023-12-22T01:00:48;21.47;;;2.50;;
84652;SDS011;74883;48.882;2.092;2023-12-22T01:03:13;19.05;;;3.13;;
84652;SDS011;74883;48.882;2.092;2023-12-22T01:05:38;14.37;;;2.23;;
84652;SDS011;74883;48.882;2.092;2023-12-22T01:08:04;15.30;;;2.73;;
84652;SDS011;74883;48.882;2.092;2023-12-22T01:10:29;13.15;;;2.90;;
84652;SDS011;74883;48.882;2.092;2023-12-22T01:12:54;15.20;;;3.00;;
84652;SDS011;74883;48.882;2.092;2023-12-22T01:15:20;18.70;;;3.20;;
84652;SDS011;74883;48.882;2.092;2023-12-22T01:17:45;21.80;;;3.60;;
84652;SDS011;74883;48.882;2.092;2023-12-22T01:20:10;11.23;;;2.53;;
84652;SDS011;74883;48.882;2.092;2023-12-22T01:22:36;13.82;;;2.08;;
84652;SDS011;74883;48.882;2.092;2023-12-22T01:25:03;11.15;;;1.80;;
84652;SDS011;74883;48.882;2.092;2023-12-22T01:27:30;16.27;;;3.03;;
84652;SDS011;74883;48.882;2.092;2023-12-22T01:29:56;17.20;;;2.55;;
84652;SDS011;74883;48.882;2.092;2023-12-22T01:32:21;15.05;;;2.33;;
84652;SDS011;74883;48.882;2.092;2023-12-22T01:34:46;15.20;;;1.80;;
84652;SDS011;74883;48.882;2.092;2023-12-22T01:37:12;11.32;;;2.13;;
84652;SDS011;74883;48.882;2.092;2023-12-22T01:39:37;11.80;;;1.85;;
84652;SDS011;74883;48.882;2.092;2023-12-22T01:42:03;12.37;;;2.30;;
84652;SDS011;74883;48.882;2.092;2023-12-22T01:44:29;11.30;;;2.15;;
84652;SDS011;74883;48.882;2.092;2023-12-22T01:46:54;14.47;;;1.90;;
84652;SDS011;74883;48.882;2.092;2023-12-22T01:49:20;14.57;;;2.25;;
84652;SDS011;74883;48.882;2.092;2023-12-22T01:51:47;14.45;;;2.03;;
84652;SDS011;74883;48.882;2.092;2023-12-22T01:54:13;12.77;;;2.38;;
84652;SDS011;74883;48.882;2.092;2023-12-22T01:56:40;10.70;;;1.85;;
84652;SDS011;74883;48.882;2.092;2023-12-22T01:59:07;10.73;;;1.90;;
84652;SDS011;74883;48.882;2.092;2023-12-22T02:01:33;15.52;;;2.45;;
84652;SDS011;74883;48.882;2.092;2023-12-22T02:03:59;10.75;;;1.80;;
84652;SDS011;74883;48.882;2.092;2023-12-22T02:06:25;14.18;;;2.85;;
84652;SDS011;74883;48.882;2.092;2023-12-22T02:08:51;7.47;;;1.65;;
84652;SDS011;74883;48.882;2.092;2023-12-22T02:11:16;10.43;;;2.15;;
84652;SDS011;74883;48.882;2.092;2023-12-22T02:13:45;9.00;;;2.17;;
84652;SDS011;74883;48.882;2.092;2023-12-22T02:16:17;6.63;;;2.00;;
84652;SDS011;74883;48.882;2.092;2023-12-22T02:18:48;12.02;;;1.67;;
84652;SDS011;74883;48.882;2.092;2023-12-22T02:21:17;14.55;;;3.55;;
84652;SDS011;74883;48.882;2.092;2023-12-22T02:23:43;15.80;;;2.17;;
84652;SDS011;74883;48.882;2.092;2023-12-22T02:26:23;12.80;;;2.03;;
84652;SDS011;74883;48.882;2.092;2023-12-22T02:28:54;11.55;;;2.15;;
84652;SDS011;74883;48.882;2.092;2023-12-22T02:31:25;14.57;;;2.58;;
84652;SDS011;74883;48.882;2.092;2023-12-22T02:33:58;9.40;;;2.22;;
84652;SDS011;74883;48.882;2.092;2023-12-22T02:36:25;16.52;;;1.90;;
84652;SDS011;74883;48.882;2.092;2023-12-22T02:38:51;9.18;;;2.28;;
84652;SDS011;74883;48.882;2.092;2023-12-22T02:41:19;15.55;;;2.42;;
84652;SDS011;74883;48.882;2.092;2023-12-22T02:43:46;18.60;;;2.28;;
84652;SDS011;74883;48.882;2.092;2023-12-22T02:46:15;10.13;;;2.30;;
84652;SDS011;74883;48.882;2.092;2023-12-22T02:48:41;12.43;;;2.10;;
84652;SDS011;74883;48.882;2.092;2023-12-22T02:51:06;11.63;;;2.13;;
84652;SDS011;74883;48.882;2.092;2023-12-22T02:53:31;12.25;;;1.63;;
84652;SDS011;74883;48.882;2.092;2023-12-22T02:55:57;14.03;;;2.20;;
84652;SDS011;74883;48.882;2.092;2023-12-22T02:58:22;11.53;;;2.00;;
84652;SDS011;74883;48.882;2.092;2023-12-22T03:00:47;17.00;;;1.90;;
84652;SDS011;74883;48.882;2.092;2023-12-22T03:03:13;6.72;;;1.40;;
84652;SDS011;74883;48.882;2.092;2023-12-22T03:05:38;15.35;;;1.83;;
84652;SDS011;74883;48.882;2.092;2023-12-22T03:08:04;17.60;;;2.95;;
84652;SDS011;74883;48.882;2.092;2023-12-22T03:10:29;13.25;;;1.85;;
84652;SDS011;74883;48.882;2.092;2023-12-22T03:12:55;8.20;;;1.90;;
84652;SDS011;74883;48.882;2.092;2023-12-22T03:15:20;13.30;;;3.37;;
84652;SDS011;74883;48.882;2.092;2023-12-22T03:17:45;15.25;;;2.20;;
84652;SDS011;74883;48.882;2.092;2023-12-22T03:20:11;12.97;;;2.20;;
84652;SDS011;74883;48.882;2.092;2023-12-22T03:22:36;13.40;;;1.88;;
84652;SDS011;74883;48.882;2.092;2023-12-22T03:25:02;9.53;;;2.23;;
84652;SDS011;74883;48.882;2.092;2023-12-22T03:27:27;18.48;;;2.42;;
84652;SDS011;74883;48.882;2.092;2023-12-22T03:29:52;12.77;;;2.43;;
84652;SDS011;74883;48.882;2.092;2023-12-22T03:32:18;10.80;;;1.77;;
84652;SDS011;74883;48.882;2.092;2023-12-22T03:34:44;10.25;;;1.90;;
84652;SDS011;74883;48.882;2.092;2023-12-22T03:37:09;16.37;;;2.57;;
84652;SDS011;74883;48.882;2.092;2023-12-22T03:39:35;10.00;;;1.60;;
84652;SDS011;74883;48.882;2.092;2023-12-22T03:42:00;7.67;;;1.40;;
84652;SDS011;74883;48.882;2.092;2023-12-22T03:44:25;12.10;;;1.77;;
84652;SDS011;74883;48.882;2.092;2023-12-22T03:46:51;11.23;;;1.97;;
84652;SDS011;74883;48.882;2.092;2023-12-22T03:49:16;14.23;;;2.35;;
84652;SDS011;74883;48.882;2.092;2023-12-22T03:51:42;13.05;;;2.25;;
84652;SDS011;74883;48.882;2.092;2023-12-22T03:54:07;7.18;;;1.33;;
84652;SDS011;74883;48.882;2.092;2023-12-22T03:56:33;13.05;;;2.47;;
84652;SDS011;74883;48.882;2.092;2023-12-22T03:58:58;10.93;;;1.60;;
84652;SDS011;74883;48.882;2.092;2023-12-22T04:01:23;12.50;;;1.37;;
84652;SDS011;74883;48.882;2.092;2023-12-22T04:03:49;12.53;;;2.10;;
84652;SDS011;74883;48.882;2.092;2023-12-22T04:06:14;11.77;;;1.90;;
84652;SDS011;74883;48.882;2.092;2023-12-22T04:08:39;12.30;;;2.03;;
84652;SDS011;74883;48.882;2.092;2023-12-22T04:11:05;12.97;;;1.80;;
84652;SDS011;74883;48.882;2.092;2023-12-22T04:13:30;11.35;;;2.15;;
84652;SDS011;74883;48.882;2.092;2023-12-22T04:15:55;13.70;;;2.03;;
84652;SDS011;74883;48.882;2.092;2023-12-22T04:18:21;13.87;;;1.57;;
84652;SDS011;74883;48.882;2.092;2023-12-22T04:20:46;11.80;;;1.40;;
84652;SDS011;74883;48.882;2.092;2023-12-22T04:23:14;4.15;;;0.95;;
84652;SDS011;74883;48.882;2.092;2023-12-22T04:25:40;9.07;;;1.20;;
84652;SDS011;74883;48.882;2.092;2023-12-22T04:28:05;8.65;;;1.40;;
84652;SDS011;74883;48.882;2.092;2023-12-22T04:30:30;13.20;;;1.60;;
84652;SDS011;74883;48.882;2.092;2023-12-22T04:32:56;9.10;;;1.60;;
84652;SDS011;74883;48.882;2.092;2023-12-22T04:35:21;9.23;;;1.88;;
84652;SDS011;74883;48.882;2.092;2023-12-22T04:37:46;10.27;;;1.30;;
84652;SDS011;74883;48.882;2.092;2023-12-22T04:40:12;11.13;;;2.43;;
84652;SDS011;74883;48.882;2.092;2023-12-22T04:42:37;10.25;;;1.52;;
84652;SDS011;74883;48.882;2.092;2023-12-22T04:45:02;12.83;;;1.17;;
84652;SDS011;74883;48.882;2.092;2023-12-22T04:47:28;6.72;;;1.40;;
84652;SDS011;74883;48.882;2.092;2023-12-22T04:49:53;11.57;;;1.50;;
84652;SDS011;74883;48.882;2.092;2023-12-22T04:52:19;10.57;;;1.80;;
84652;SDS011;74883;48.882;2.092;2023-12-22T04:54:44;10.52;;;1.30;;
84652;SDS011;74883;48.882;2.092;2023-12-22T04:57:09;9.90;;;1.93;;
84652;SDS011;74883;48.882;2.092;2023-12-22T04:59:35;9.40;;;1.17;;
84652;SDS011;74883;48.882;2.092;2023-12-22T05:02:00;9.02;;;1.23;;
84652;SDS011;74883;48.882;2.092;2023-12-22T05:04:26;12.80;;;1.50;;
84652;SDS011;74883;48.882;2.092;2023-12-22T05:06:51;9.27;;;1.40;;
84652;SDS011;74883;48.882;2.092;2023-12-22T05:09:16;6.57;;;1.60;;
84652;SDS011;74883;48.882;2.092;2023-12-22T05:11:42;8.18;;;1.02;;
84652;SDS011;74883;48.882;2.092;2023-12-22T05:14:08;7.90;;;0.93;;
84652;SDS011;74883;48.882;2.092;2023-12-22T05:16:34;8.80;;;1.05;;
84652;SDS011;74883;48.882;2.092;2023-12-22T05:19:00;7.23;;;1.20;;
84652;SDS011;74883;48.882;2.092;2023-12-22T05:21:25;6.47;;;1.17;;
84652;SDS011;74883;48.882;2.092;2023-12-22T05:23:52;7.22;;;0.70;;
84652;SDS011;74883;48.882;2.092;2023-12-22T05:26:18;4.05;;;0.82;;
84652;SDS011;74883;48.882;2.092;2023-12-22T05:28:44;4.85;;;0.73;;
84652;SDS011;74883;48.882;2.092;2023-12-22T05:31:10;5.35;;;1.00;;
84652;SDS011;74883;48.882;2.092;2023-12-22T05:33:35;5.20;;;1.00;;
84652;SDS011;74883;48.882;2.092;2023-12-22T05:36:00;15.00;;;1.43;;
84652;SDS011;74883;48.882;2.092;2023-12-22T05:38:26;6.53;;;0.70;;
84652;SDS011;74883;48.882;2.092;2023-12-22T05:40:51;9.40;;;1.73;;
84652;SDS011;74883;48.882;2.092;2023-12-22T05:43:16;3.77;;;0.90;;
84652;SDS011;74883;48.882;2.092;2023-12-22T05:45:42;5.53;;;1.00;;
84652;SDS011;74883;48.882;2.092;2023-12-22T05:48:07;5.07;;;0.90;;
84652;SDS011;74883;48.882;2.092;2023-12-22T05:50:33;7.15;;;1.05;;
84652;SDS011;74883;48.882;2.092;2023-12-22T05:52:58;9.27;;;0.90;;
84652;SDS011;74883;48.882;2.092;2023-12-22T05:55:23;5.10;;;0.70;;
84652;SDS011;74883;48.882;2.092;2023-12-22T05:57:49;5.70;;;0.80;;
84652;SDS011;74883;48.882;2.092;2023-12-22T06:00:14;6.35;;;0.98;;
84652;SDS011;74883;48.882;2.092;2023-12-22T06:02:40;3.78;;;0.70;;
84652;SDS011;74883;48.882;2.092;2023-12-22T06:05:06;5.30;;;0.90;;
84652;SDS011;74883;48.882;2.092;2023-12-22T06:07:31;6.63;;;1.27;;
84652;SDS011;74883;48.882;2.092;2023-12-22T06:09:57;4.93;;;0.93;;
84652;SDS011;74883;48.882;2.092;2023-12-22T06:12:23;8.13;;;1.00;;
84652;SDS011;74883;48.882;2.092;2023-12-22T06:14:48;7.07;;;1.47;;
84652;SDS011;74883;48.882;2.092;2023-12-22T06:17:13;6.60;;;1.20;;
84652;SDS011;74883;48.882;2.092;2023-12-22T06:19:39;4.97;;;0.80;;
84652;SDS011;74883;48.882;2.092;2023-12-22T06:22:04;5.93;;;1.00;;
84652;SDS011;74883;48.882;2.092;2023-12-22T06:24:30;11.23;;;2.10;;
84652;SDS011;74883;48.882;2.092;2023-12-22T06:26:56;9.95;;;1.30;;
84652;SDS011;74883;48.882;2.092;2023-12-22T06:29:21;7.75;;;1.83;;
84652;SDS011;74883;48.882;2.092;2023-12-22T06:31:48;7.35;;;1.17;;
84652;SDS011;74883;48.882;2.092;2023-12-22T06:34:19;4.53;;;1.00;;
84652;SDS011;74883;48.882;2.092;2023-12-22T06:36:44;7.78;;;1.25;;
84652;SDS011;74883;48.882;2.092;2023-12-22T06:39:10;9.48;;;1.40;;
84652;SDS011;74883;48.882;2.092;2023-12-22T06:41:35;7.15;;;1.30;;
84652;SDS011;74883;48.882;2.092;2023-12-22T06:44:00;6.70;;;0.98;;
84652;SDS011;74883;48.882;2.092;2023-12-22T06:46:26;11.03;;;1.33;;
84652;SDS011;74883;48.882;2.092;2023-12-22T06:48:56;8.30;;;1.17;;
84652;SDS011;74883;48.882;2.092;2023-12-22T06:51:26;8.73;;;2.05;;
84652;SDS011;74883;48.882;2.092;2023-12-22T06:53:53;7.05;;;1.25;;
84652;SDS011;74883;48.882;2.092;2023-12-22T06:58:49;7.65;;;1.38;;
84652;SDS011;74883;48.882;2.092;2023-12-22T07:03:49;7.13;;;0.80;;
84652;SDS011;74883;48.882;2.092;2023-12-22T07:06:15;11.90;;;2.45;;
84652;SDS011;74883;48.882;2.092;2023-12-22T07:08:43;9.18;;;1.83;;
84652;SDS011;74883;48.882;2.092;2023-12-22T07:11:09;5.28;;;1.08;;
84652;SDS011;74883;48.882;2.092;2023-12-22T07:13:35;7.10;;;1.13;;
84652;SDS011;74883;48.882;2.092;2023-12-22T07:16:02;6.88;;;1.73;;
84652;SDS011;74883;48.882;2.092;2023-12-22T07:18:29;7.82;;;1.20;;
84652;SDS011;74883;48.882;2.092;2023-12-22T07:20:58;5.70;;;1.20;;
84652;SDS011;74883;48.882;2.092;2023-12-22T07:23:27;5.40;;;0.82;;
84652;SDS011;74883;48.882;2.092;2023-12-22T07:25:53;7.28;;;1.75;;
84652;SDS011;74883;48.882;2.092;2023-12-22T07:28:18;6.93;;;0.80;;
84652;SDS011;74883;48.882;2.092;2023-12-22T07:30:43;9.88;;;1.27;;
84652;SDS011;74883;48.882;2.092;2023-12-22T07:33:09;5.13;;;0.83;;
84652;SDS011;74883;48.882;2.092;2023-12-22T07:35:34;4.90;;;0.90;;
84652;SDS011;74883;48.882;2.092;2023-12-22T07:37:59;4.20;;;1.10;;
84652;SDS011;74883;48.882;2.092;2023-12-22T07:40:27;5.30;;;0.80;;
84652;SDS011;74883;48.882;2.092;2023-12-22T07:42:55;4.88;;;0.65;;
84652;SDS011;74883;48.882;2.092;2023-12-22T07:45:21;4.90;;;1.05;;
84652;SDS011;74883;48.882;2.092;2023-12-22T07:47:47;7.07;;;0.80;;
84652;SDS011;74883;48.882;2.092;2023-12-22T07:50:12;4.00;;;0.65;;
84652;SDS011;74883;48.882;2.092;2023-12-22T07:52:37;2.60;;;0.53;;
84652;SDS011;74883;48.882;2.092;2023-12-22T07:55:07;2.28;;;0.50;;
84652;SDS011;74883;48.882;2.092;2023-12-22T07:57:35;3.17;;;0.63;;
84652;SDS011;74883;48.882;2.092;2023-12-22T08:00:01;2.15;;;0.60;;
84652;SDS011;74883;48.882;2.092;2023-12-22T08:02:26;3.10;;;0.60;;
84652;SDS011;74883;48.882;2.092;2023-12-22T08:04:52;1.98;;;0.57;;
84652;SDS011;74883;48.882;2.092;2023-12-22T08:07:17;5.07;;;0.77;;
84652;SDS011;74883;48.882;2.092;2023-12-22T08:09:43;4.70;;;0.95;;
84652;SDS011;74883;48.882;2.092;2023-12-22T08:12:08;4.38;;;0.88;;
84652;SDS011;74883;48.882;2.092;2023-12-22T08:14:34;7.30;;;0.85;;
84652;SDS011;74883;48.882;2.092;2023-12-22T08:17:00;4.77;;;0.80;;
84652;SDS011;74883;48.882;2.092;2023-12-22T08:19:25;7.30;;;1.92;;
84652;SDS011;74883;48.882;2.092;2023-12-22T08:21:54;7.68;;;0.82;;
84652;SDS011;74883;48.882;2.092;2023-12-22T08:24:19;4.47;;;0.88;;
84652;SDS011;74883;48.882;2.092;2023-12-22T08:26:45;5.50;;;0.90;;
84652;SDS011;74883;48.882;2.092;2023-12-22T08:29:10;5.00;;;0.80;;
84652;SDS011;74883;48.882;2.092;2023-12-22T08:31:36;5.70;;;0.73;;
84652;SDS011;74883;48.882;2.092;2023-12-22T08:34:01;3.08;;;0.60;;
84652;SDS011;74883;48.882;2.092;2023-12-22T08:36:26;5.27;;;0.70;;
84652;SDS011;74883;48.882;2.092;2023-12-22T08:38:52;5.55;;;0.90;;
84652;SDS011;74883;48.882;2.092;2023-12-22T08:41:17;4.70;;;0.87;;
84652;SDS011;74883;48.882;2.092;2023-12-22T08:43:43;10.70;;;1.00;;
84652;SDS011;74883;48.882;2.092;2023-12-22T08:46:08;4.47;;;0.70;;
84652;SDS011;74883;48.882;2.092;2023-12-22T08:48:34;8.27;;;0.90;;
84652;SDS011;74883;48.882;2.092;2023-12-22T08:51:00;8.05;;;1.10;;
84652;SDS011;74883;48.882;2.092;2023-12-22T08:53:25;5.30;;;0.90;;
84652;SDS011;74883;48.882;2.092;2023-12-22T08:55:51;7.45;;;0.90;;
84652;SDS011;74883;48.882;2.092;2023-12-22T08:58:17;3.33;;;0.93;;
84652;SDS011;74883;48.882;2.092;2023-12-22T09:00:42;12.43;;;1.38;;
84652;SDS011;74883;48.882;2.092;2023-12-22T09:03:08;4.90;;;0.80;;
84652;SDS011;74883;48.882;2.092;2023-12-22T09:05:33;7.60;;;0.90;;
84652;SDS011;74883;48.882;2.092;2023-12-22T09:07:58;4.97;;;1.58;;
84652;SDS011;74883;48.882;2.092;2023-12-22T09:10:24;4.97;;;1.48;;
84652;SDS011;74883;48.882;2.092;2023-12-22T09:12:50;7.22;;;1.13;;
84652;SDS011;74883;48.882;2.092;2023-12-22T09:15:16;5.18;;;0.90;;
84652;SDS011;74883;48.882;2.092;2023-12-22T09:17:41;10.00;;;1.20;;
84652;SDS011;74883;48.882;2.092;2023-12-22T09:20:07;7.13;;;1.20;;
84652;SDS011;74883;48.882;2.092;2023-12-22T09:22:33;11.85;;;1.55;;
84652;SDS011;74883;48.882;2.092;2023-12-22T09:24:59;5.83;;;1.27;;
84652;SDS011;74883;48.882;2.092;2023-12-22T09:27:24;11.57;;;1.15;;
84652;SDS011;74883;48.882;2.092;2023-12-22T09:29:55;6.80;;;1.10;;
84652;SDS011;74883;48.882;2.092;2023-12-22T09:32:20;7.57;;;1.33;;
84652;SDS011;74883;48.882;2.092;2023-12-22T09:34:45;5.43;;;0.80;;
84652;SDS011;74883;48.882;2.092;2023-12-22T09:37:11;9.87;;;0.97;;
84652;SDS011;74883;48.882;2.092;2023-12-22T09:39:36;7.77;;;1.10;;
84652;SDS011;74883;48.882;2.092;2023-12-22T09:42:02;5.20;;;1.02;;
84652;SDS011;74883;48.882;2.092;2023-12-22T09:44:28;4.88;;;0.57;;
84652;SDS011;74883;48.882;2.092;2023-12-22T09:46:58;6.95;;;1.05;;
84652;SDS011;74883;48.882;2.092;2023-12-22T09:49:24;5.35;;;0.88;;
84652;SDS011;74883;48.882;2.092;2023-12-22T09:51:51;7.30;;;0.85;;
84652;SDS011;74883;48.882;2.092;2023-12-22T09:54:19;4.10;;;0.82;;
84652;SDS011;74883;48.882;2.092;2023-12-22T09:56:44;6.65;;;0.95;;
84652;SDS011;74883;48.882;2.092;2023-12-22T09:59:12;6.22;;;1.50;;
84652;SDS011;74883;48.882;2.092;2023-12-22T10:01:44;8.05;;;1.13;;
84652;SDS011;74883;48.882;2.092;2023-12-22T10:04:11;3.85;;;0.85;;
84652;SDS011;74883;48.882;2.092;2023-12-22T10:06:37;7.25;;;1.52;;
84652;SDS011;74883;48.882;2.092;2023-12-22T10:09:03;11.13;;;1.25;;
84652;SDS011;74883;48.882;2.092;2023-12-22T10:11:33;10.23;;;1.10;;
84652;SDS011;74883;48.882;2.092;2023-12-22T10:14:01;9.45;;;1.30;;
84652;SDS011;74883;48.882;2.092;2023-12-22T10:16:27;7.05;;;1.00;;
84652;SDS011;74883;48.882;2.092;2023-12-22T10:18:53;6.80;;;1.30;;
84652;SDS011;74883;48.882;2.092;2023-12-22T10:21:18;5.45;;;0.90;;
84652;SDS011;74883;48.882;2.092;2023-12-22T10:23:44;9.02;;;0.98;;
84652;SDS011;74883;48.882;2.092;2023-12-22T10:26:12;10.10;;;1.43;;
84652;SDS011;74883;48.882;2.092;2023-12-22T10:28:37;8.35;;;1.58;;
84652;SDS011;74883;48.882;2.092;2023-12-22T10:31:03;6.20;;;1.00;;
84652;SDS011;74883;48.882;2.092;2023-12-22T10:33:33;3.10;;;0.75;;
84652;SDS011;74883;48.882;2.092;2023-12-22T10:36:01;8.27;;;1.00;;
84652;SDS011;74883;48.882;2.092;2023-12-22T10:38:32;11.48;;;1.73;;
84652;SDS011;74883;48.882;2.092;2023-12-22T10:40:59;4.40;;;1.00;;
84652;SDS011;74883;48.882;2.092;2023-12-22T10:43:24;6.88;;;0.93;;
84652;SDS011;74883;48.882;2.092;2023-12-22T10:45:51;7.50;;;0.82;;
84652;SDS011;74883;48.882;2.092;2023-12-22T10:50:43;10.00;;;1.73;;
84652;SDS011;74883;48.882;2.092;2023-12-22T10:53:10;8.20;;;1.33;;
84652;SDS011;74883;48.882;2.092;2023-12-22T10:55:36;6.32;;;1.55;;
84652;SDS011;74883;48.882;2.092;2023-12-22T10:58:02;9.17;;;1.13;;
84652;SDS011;74883;48.882;2.092;2023-12-22T11:00:28;3.13;;;0.50;;
84652;SDS011;74883;48.882;2.092;2023-12-22T11:02:56;14.65;;;2.75;;
84652;SDS011;74883;48.882;2.092;2023-12-22T11:05:27;16.95;;;1.60;;
84652;SDS011;74883;48.882;2.092;2023-12-22T11:07:54;9.35;;;1.42;;
84652;SDS011;74883;48.882;2.092;2023-12-22T11:10:20;8.75;;;1.15;;
84652;SDS011;74883;48.882;2.092;2023-12-22T11:12:46;14.05;;;2.90;;
84652;SDS011;74883;48.882;2.092;2023-12-22T11:15:12;13.43;;;1.48;;
84652;SDS011;74883;48.882;2.092;2023-12-22T11:17:40;5.53;;;1.15;;
84652;SDS011;74883;48.882;2.092;2023-12-22T11:22:37;3.83;;;0.82;;
84652;SDS011;74883;48.882;2.092;2023-12-22T11:25:03;10.13;;;1.90;;
84652;SDS011;74883;48.882;2.092;2023-12-22T11:27:31;10.95;;;1.63;;
84652;SDS011;74883;48.882;2.092;2023-12-22T11:29:58;8.35;;;1.55;;
84652;SDS011;74883;48.882;2.092;2023-12-22T11:34:53;12.93;;;1.75;;
84652;SDS011;74883;48.882;2.092;2023-12-22T11:37:21;9.30;;;1.60;;
84652;SDS011;74883;48.882;2.092;2023-12-22T11:39:47;9.57;;;1.27;;
84652;SDS011;74883;48.882;2.092;2023-12-22T11:42:17;9.48;;;1.70;;
84652;SDS011;74883;48.882;2.092;2023-12-22T11:44:48;8.75;;;1.98;;
84652;SDS011;74883;48.882;2.092;2023-12-22T11:47:14;13.60;;;1.80;;
84652;SDS011;74883;48.882;2.092;2023-12-22T11:49:40;16.90;;;1.98;;
84652;SDS011;74883;48.882;2.092;2023-12-22T11:52:10;18.95;;;2.55;;
84652;SDS011;74883;48.882;2.092;2023-12-22T11:54:46;17.08;;;2.22;;
84652;SDS011;74883;48.882;2.092;2023-12-22T12:02:56;13.85;;;2.83;;
84652;SDS011;74883;48.882;2.092;2023-12-22T12:05:22;17.23;;;2.67;;
84652;SDS011;74883;48.882;2.092;2023-12-22T12:07:48;24.70;;;2.88;;
84652;SDS011;74883;48.882;2.092;2023-12-22T12:13:15;21.83;;;3.75;;
84652;SDS011;74883;48.882;2.092;2023-12-22T12:15:41;11.70;;;2.22;;
84652;SDS011;74883;48.882;2.092;2023-12-22T12:18:07;17.23;;;2.42;;
84652;SDS011;74883;48.882;2.092;2023-12-22T12:20:34;16.17;;;2.42;;
84652;SDS011;74883;48.882;2.092;2023-12-22T12:23:02;16.58;;;2.60;;
84652;SDS011;74883;48.882;2.092;2023-12-22T12:25:30;19.13;;;3.05;;
84652;SDS011;74883;48.882;2.092;2023-12-22T12:28:03;18.98;;;2.92;;
84652;SDS011;74883;48.882;2.092;2023-12-22T12:30:32;16.67;;;2.38;;
84652;SDS011;74883;48.882;2.092;2023-12-22T12:33:05;26.35;;;4.78;;
84652;SDS011;74883;48.882;2.092;2023-12-22T12:35:32;21.33;;;2.40;;
84652;SDS011;74883;48.882;2.092;2023-12-22T12:37:59;17.83;;;2.92;;
84652;SDS011;74883;48.882;2.092;2023-12-22T12:40:25;25.63;;;3.75;;
84652;SDS011;74883;48.882;2.092;2023-12-22T12:42:57;13.23;;;1.80;;
84652;SDS011;74883;48.882;2.092;2023-12-22T12:45:24;21.80;;;3.63;;
84652;SDS011;74883;48.882;2.092;2023-12-22T12:47:56;19.88;;;3.45;;
84652;SDS011;74883;48.882;2.092;2023-12-22T12:50:23;17.85;;;3.42;;
84652;SDS011;74883;48.882;2.092;2023-12-22T12:52:49;19.42;;;4.47;;
84652;SDS011;74883;48.882;2.092;2023-12-22T12:55:25;13.60;;;2.13;;
84652;SDS011;74883;48.882;2.092;2023-12-22T12:57:52;17.13;;;2.88;;
84652;SDS011;74883;48.882;2.092;2023-12-22T13:02:53;12.43;;;2.80;;
84652;SDS011;74883;48.882;2.092;2023-12-22T13:05:22;12.70;;;2.17;;
84652;SDS011;74883;48.882;2.092;2023-12-22T13:07:48;14.73;;;2.28;;
84652;SDS011;74883;48.882;2.092;2023-12-22T13:10:23;11.63;;;1.67;;
84652;SDS011;74883;48.882;2.092;2023-12-22T13:12:50;16.92;;;2.30;;
84652;SDS011;74883;48.882;2.092;2023-12-22T13:15:18;18.08;;;2.85;;
84652;SDS011;74883;48.882;2.092;2023-12-22T13:17:47;8.63;;;2.38;;
84652;SDS011;74883;48.882;2.092;2023-12-22T13:20:12;16.42;;;2.15;;
84652;SDS011;74883;48.882;2.092;2023-12-22T13:22:38;14.02;;;2.20;;
84652;SDS011;74883;48.882;2.092;2023-12-22T13:25:04;10.30;;;2.40;;
84652;SDS011;74883;48.882;2.092;2023-12-22T13:27:33;14.82;;;2.42;;
84652;SDS011;74883;48.882;2.092;2023-12-22T13:30:12;13.10;;;2.03;;
84652;SDS011;74883;48.882;2.092;2023-12-22T13:32:38;10.73;;;2.17;;
84652;SDS011;74883;48.882;2.092;2023-12-22T13:35:03;17.47;;;2.60;;
84652;SDS011;74883;48.882;2.092;2023-12-22T13:37:29;19.10;;;2.03;;
84652;SDS011;74883;48.882;2.092;2023-12-22T13:39:55;14.40;;;2.20;;
84652;SDS011;74883;48.882;2.092;2023-12-22T13:42:21;13.60;;;2.70;;
84652;SDS011;74883;48.882;2.092;2023-12-22T13:44:46;15.02;;;3.40;;
84652;SDS011;74883;48.882;2.092;2023-12-22T13:47:16;21.08;;;3.15;;
84652;SDS011;74883;48.882;2.092;2023-12-22T13:49:42;12.48;;;2.05;;
84652;SDS011;74883;48.882;2.092;2023-12-22T13:52:23;14.55;;;1.83;;
84652;SDS011;74883;48.882;2.092;2023-12-22T13:55:00;14.82;;;2.03;;
84652;SDS011;74883;48.882;2.092;2023-12-22T13:57:27;10.80;;;2.05;;
84652;SDS011;74883;48.882;2.092;2023-12-22T13:59:52;12.32;;;2.72;;
84652;SDS011;74883;48.882;2.092;2023-12-22T14:02:21;13.45;;;2.20;;
84652;SDS011;74883;48.882;2.092;2023-12-22T14:04:50;15.90;;;2.03;;
84652;SDS011;74883;48.882;2.092;2023-12-22T14:07:16;8.77;;;1.75;;
84652;SDS011;74883;48.882;2.092;2023-12-22T14:09:41;8.45;;;1.55;;
84652;SDS011;74883;48.882;2.092;2023-12-22T14:12:07;14.98;;;2.05;;
84652;SDS011;74883;48.882;2.092;2023-12-22T14:14:32;14.77;;;2.70;;
84652;SDS011;74883;48.882;2.092;2023-12-22T14:16:57;12.83;;;1.50;;
84652;SDS011;74883;48.882;2.092;2023-12-22T14:19:23;11.37;;;2.13;;
84652;SDS011;74883;48.882;2.092;2023-12-22T14:21:48;14.57;;;2.33;;
84652;SDS011;74883;48.882;2.092;2023-12-22T14:24:13;10.07;;;1.70;;
84652;SDS011;74883;48.882;2.092;2023-12-22T14:26:54;12.53;;;2.53;;
84652;SDS011;74883;48.882;2.092;2023-12-22T14:29:21;13.18;;;1.90;;
84652;SDS011;74883;48.882;2.092;2023-12-22T14:31:48;17.35;;;2.35;;
84652;SDS011;74883;48.882;2.092;2023-12-22T14:34:14;14.23;;;2.78;;
84652;SDS011;74883;48.882;2.092;2023-12-22T14:36:39;20.05;;;2.67;;
84652;SDS011;74883;48.882;2.092;2023-12-22T14:39:05;16.30;;;2.43;;
84652;SDS011;74883;48.882;2.092;2023-12-22T14:41:30;12.82;;;2.38;;
84652;SDS011;74883;48.882;2.092;2023-12-22T14:43:56;12.77;;;2.17;;
84652;SDS011;74883;48.882;2.092;2023-12-22T14:46:21;12.90;;;2.58;;
84652;SDS011;74883;48.882;2.092;2023-12-22T14:48:46;14.40;;;3.42;;
84652;SDS011;74883;48.882;2.092;2023-12-22T14:51:12;21.67;;;2.57;;
84652;SDS011;74883;48.882;2.092;2023-12-22T14:53:37;15.27;;;2.10;;
84652;SDS011;74883;48.882;2.092;2023-12-22T14:56:03;21.15;;;2.40;;
84652;SDS011;74883;48.882;2.092;2023-12-22T14:58:28;12.27;;;2.75;;